Terminal Aerodrome Forecast
Issued by NWS

Home | Current Version | Previous Version | Text Only | Print | Product List | Glossary On
Versions: 1 2 3 4 5 6 7 8 9 10 11 12 13 14 15 16 17
958
FTUS46 KSGX 061125
TAFONT
TAF
KONT 061125Z 0612/0718 VRB05KT P6SM -SHRA SCT015 OVC050
     FM062100 26011G20KT P6SM VCSH SCT025 BKN050
     FM070300 25009KT P6SM VCSH SCT025 BKN035
     FM070600 VRB05KT P6SM BKN035 BKN050=

USA.gov is the U.S. government's official web portal to all federal, state and local government web resources and services.